sensor_id;sensor_type;location;lat;lon;timestamp;P1;durP1;ratioP1;P2;durP2;ratioP2
19560;SDS011;9927;47.792;10.616;2022-12-29T04:02:17;4.70;;;3.63;;
19560;SDS011;9927;47.792;10.616;2022-12-29T04:04:45;5.47;;;3.60;;
19560;SDS011;9927;47.792;10.616;2022-12-29T04:07:12;6.20;;;3.70;;
19560;SDS011;9927;47.792;10.616;2022-12-29T04:09:40;7.10;;;4.37;;
19560;SDS011;9927;47.792;10.616;2022-12-29T04:12:07;6.50;;;3.53;;
19560;SDS011;9927;47.792;10.616;2022-12-29T04:14:34;5.33;;;3.70;;
19560;SDS011;9927;47.792;10.616;2022-12-29T04:17:02;4.70;;;3.60;;
19560;SDS011;9927;47.792;10.616;2022-12-29T04:19:29;7.73;;;4.37;;
19560;SDS011;9927;47.792;10.616;2022-12-29T04:21:56;5.20;;;3.70;;
19560;SDS011;9927;47.792;10.616;2022-12-29T04:24:24;6.17;;;3.90;;
19560;SDS011;9927;47.792;10.616;2022-12-29T04:26:51;5.33;;;3.60;;
19560;SDS011;9927;47.792;10.616;2022-12-29T04:29:18;6.17;;;3.57;;
19560;SDS011;9927;47.792;10.616;2022-12-29T04:31:45;4.53;;;3.40;;
19560;SDS011;9927;47.792;10.616;2022-12-29T04:34:13;5.50;;;3.47;;
19560;SDS011;9927;47.792;10.616;2022-12-29T04:36:40;4.10;;;3.20;;
19560;SDS011;9927;47.792;10.616;2022-12-29T04:39:07;5.33;;;3.37;;
19560;SDS011;9927;47.792;10.616;2022-12-29T04:41:35;2.83;;;2.73;;
19560;SDS011;9927;47.792;10.616;2022-12-29T04:44:02;4.83;;;3.60;;
19560;SDS011;9927;47.792;10.616;2022-12-29T04:46:33;4.33;;;3.20;;
19560;SDS011;9927;47.792;10.616;2022-12-29T04:49:00;3.20;;;3.10;;
19560;SDS011;9927;47.792;10.616;2022-12-29T04:51:34;4.90;;;3.30;;
19560;SDS011;9927;47.792;10.616;2022-12-29T04:54:02;6.37;;;4.00;;
19560;SDS011;9927;47.792;10.616;2022-12-29T04:56:29;4.73;;;3.23;;
19560;SDS011;9927;47.792;10.616;2022-12-29T04:58:56;3.33;;;3.23;;
19560;SDS011;9927;47.792;10.616;2022-12-29T05:01:24;4.70;;;3.47;;
19560;SDS011;9927;47.792;10.616;2022-12-29T05:03:51;5.13;;;3.50;;
19560;SDS011;9927;47.792;10.616;2022-12-29T05:06:18;6.30;;;3.97;;
19560;SDS011;9927;47.792;10.616;2022-12-29T05:08:46;4.37;;;3.40;;
19560;SDS011;9927;47.792;10.616;2022-12-29T05:11:13;5.07;;;3.77;;
19560;SDS011;9927;47.792;10.616;2022-12-29T05:13:40;8.13;;;4.80;;
19560;SDS011;9927;47.792;10.616;2022-12-29T05:16:08;13.03;;;6.97;;
19560;SDS011;9927;47.792;10.616;2022-12-29T05:18:35;11.33;;;6.47;;
19560;SDS011;9927;47.792;10.616;2022-12-29T05:21:02;10.80;;;5.80;;
19560;SDS011;9927;47.792;10.616;2022-12-29T05:23:29;6.47;;;3.90;;
19560;SDS011;9927;47.792;10.616;2022-12-29T05:25:57;4.87;;;3.83;;
19560;SDS011;9927;47.792;10.616;2022-12-29T05:28:24;7.03;;;3.60;;
19560;SDS011;9927;47.792;10.616;2022-12-29T05:30:51;4.03;;;3.37;;
19560;SDS011;9927;47.792;10.616;2022-12-29T05:33:19;3.10;;;2.90;;
19560;SDS011;9927;47.792;10.616;2022-12-29T05:35:46;4.30;;;3.40;;
19560;SDS011;9927;47.792;10.616;2022-12-29T05:38:14;2.97;;;2.87;;
19560;SDS011;9927;47.792;10.616;2022-12-29T05:40:41;6.30;;;3.50;;
19560;SDS011;9927;47.792;10.616;2022-12-29T05:43:09;3.53;;;3.20;;
19560;SDS011;9927;47.792;10.616;2022-12-29T05:45:37;4.53;;;3.40;;
19560;SDS011;9927;47.792;10.616;2022-12-29T05:48:04;4.17;;;2.90;;
19560;SDS011;9927;47.792;10.616;2022-12-29T05:50:31;7.10;;;3.40;;
19560;SDS011;9927;47.792;10.616;2022-12-29T05:52:58;7.57;;;3.43;;
19560;SDS011;9927;47.792;10.616;2022-12-29T05:55:26;7.07;;;4.00;;
19560;SDS011;9927;47.792;10.616;2022-12-29T05:57:53;4.77;;;3.73;;
19560;SDS011;9927;47.792;10.616;2022-12-29T06:00:20;4.73;;;3.60;;
19560;SDS011;9927;47.792;10.616;2022-12-29T06:02:48;10.10;;;4.03;;
19560;SDS011;9927;47.792;10.616;2022-12-29T06:05:15;5.53;;;3.80;;
19560;SDS011;9927;47.792;10.616;2022-12-29T06:07:43;5.17;;;3.70;;
19560;SDS011;9927;47.792;10.616;2022-12-29T06:10:11;6.40;;;3.80;;
19560;SDS011;9927;47.792;10.616;2022-12-29T06:12:38;5.30;;;3.70;;
19560;SDS011;9927;47.792;10.616;2022-12-29T06:15:06;7.80;;;4.40;;
19560;SDS011;9927;47.792;10.616;2022-12-29T06:17:33;5.63;;;4.03;;
19560;SDS011;9927;47.792;10.616;2022-12-29T06:20:01;7.03;;;4.47;;
19560;SDS011;9927;47.792;10.616;2022-12-29T06:22:29;5.50;;;3.90;;
19560;SDS011;9927;47.792;10.616;2022-12-29T06:24:56;5.37;;;3.93;;
19560;SDS011;9927;47.792;10.616;2022-12-29T06:27:30;7.47;;;4.13;;
19560;SDS011;9927;47.792;10.616;2022-12-29T06:29:58;7.30;;;4.43;;
19560;SDS011;9927;47.792;10.616;2022-12-29T06:32:25;6.20;;;4.10;;
19560;SDS011;9927;47.792;10.616;2022-12-29T06:34:53;6.03;;;4.03;;
19560;SDS011;9927;47.792;10.616;2022-12-29T06:37:20;5.23;;;3.90;;
19560;SDS011;9927;47.792;10.616;2022-12-29T06:39:47;10.03;;;5.77;;
19560;SDS011;9927;47.792;10.616;2022-12-29T06:42:14;6.67;;;4.40;;
19560;SDS011;9927;47.792;10.616;2022-12-29T06:44:42;8.53;;;4.80;;
19560;SDS011;9927;47.792;10.616;2022-12-29T06:47:11;8.47;;;5.50;;
19560;SDS011;9927;47.792;10.616;2022-12-29T06:49:38;12.10;;;7.07;;
19560;SDS011;9927;47.792;10.616;2022-12-29T06:52:05;8.47;;;5.80;;
19560;SDS011;9927;47.792;10.616;2022-12-29T06:54:38;6.13;;;4.80;;
19560;SDS011;9927;47.792;10.616;2022-12-29T06:57:06;8.63;;;5.23;;
19560;SDS011;9927;47.792;10.616;2022-12-29T06:59:33;8.50;;;5.57;;
19560;SDS011;9927;47.792;10.616;2022-12-29T07:02:00;7.17;;;5.00;;
19560;SDS011;9927;47.792;10.616;2022-12-29T07:04:29;5.90;;;4.63;;
19560;SDS011;9927;47.792;10.616;2022-12-29T07:06:56;5.47;;;4.30;;
19560;SDS011;9927;47.792;10.616;2022-12-29T07:09:23;6.53;;;4.72;;
19560;SDS011;9927;47.792;10.616;2022-12-29T07:11:50;4.50;;;4.20;;
19560;SDS011;9927;47.792;10.616;2022-12-29T07:14:18;6.60;;;4.40;;
19560;SDS011;9927;47.792;10.616;2022-12-29T07:16:45;7.07;;;4.47;;
19560;SDS011;9927;47.792;10.616;2022-12-29T07:19:12;5.77;;;4.23;;
19560;SDS011;9927;47.792;10.616;2022-12-29T07:21:40;6.00;;;3.90;;
19560;SDS011;9927;47.792;10.616;2022-12-29T07:24:13;8.33;;;4.20;;
19560;SDS011;9927;47.792;10.616;2022-12-29T07:26:40;6.77;;;4.03;;
19560;SDS011;9927;47.792;10.616;2022-12-29T07:29:08;3.80;;;3.60;;
19560;SDS011;9927;47.792;10.616;2022-12-29T07:31:35;6.13;;;4.33;;
19560;SDS011;9927;47.792;10.616;2022-12-29T07:34:03;5.73;;;4.33;;
19560;SDS011;9927;47.792;10.616;2022-12-29T07:36:30;6.60;;;4.23;;
19560;SDS011;9927;47.792;10.616;2022-12-29T07:39:00;5.83;;;4.47;;
19560;SDS011;9927;47.792;10.616;2022-12-29T07:41:28;6.67;;;4.77;;
19560;SDS011;9927;47.792;10.616;2022-12-29T07:43:55;10.37;;;6.53;;
19560;SDS011;9927;47.792;10.616;2022-12-29T07:46:24;10.20;;;5.83;;
19560;SDS011;9927;47.792;10.616;2022-12-29T07:49:11;7.67;;;5.20;;
19560;SDS011;9927;47.792;10.616;2022-12-29T07:51:39;6.80;;;5.00;;
19560;SDS011;9927;47.792;10.616;2022-12-29T07:54:09;5.97;;;5.10;;
19560;SDS011;9927;47.792;10.616;2022-12-29T07:56:36;7.50;;;5.00;;
19560;SDS011;9927;47.792;10.616;2022-12-29T07:59:04;17.43;;;9.03;;
19560;SDS011;9927;47.792;10.616;2022-12-29T08:01:31;5.27;;;4.87;;
19560;SDS011;9927;47.792;10.616;2022-12-29T08:03:58;7.60;;;5.00;;
19560;SDS011;9927;47.792;10.616;2022-12-29T08:06:26;8.80;;;6.07;;
19560;SDS011;9927;47.792;10.616;2022-12-29T08:08:53;8.67;;;5.60;;
19560;SDS011;9927;47.792;10.616;2022-12-29T08:11:22;8.97;;;6.37;;
19560;SDS011;9927;47.792;10.616;2022-12-29T08:13:50;9.20;;;6.37;;
19560;SDS011;9927;47.792;10.616;2022-12-29T08:16:17;11.03;;;6.47;;
19560;SDS011;9927;47.792;10.616;2022-12-29T08:18:45;9.67;;;5.53;;
19560;SDS011;9927;47.792;10.616;2022-12-29T08:21:12;8.53;;;5.73;;
19560;SDS011;9927;47.792;10.616;2022-12-29T08:23:39;7.30;;;5.00;;
19560;SDS011;9927;47.792;10.616;2022-12-29T08:26:07;8.10;;;4.70;;
19560;SDS011;9927;47.792;10.616;2022-12-29T08:28:34;7.47;;;4.97;;
19560;SDS011;9927;47.792;10.616;2022-12-29T08:31:01;6.40;;;4.90;;
19560;SDS011;9927;47.792;10.616;2022-12-29T08:33:29;8.00;;;5.20;;
19560;SDS011;9927;47.792;10.616;2022-12-29T08:36:03;8.13;;;5.40;;
19560;SDS011;9927;47.792;10.616;2022-12-29T08:38:33;8.57;;;5.47;;
19560;SDS011;9927;47.792;10.616;2022-12-29T08:41:00;9.20;;;5.73;;
19560;SDS011;9927;47.792;10.616;2022-12-29T08:43:28;9.77;;;5.80;;
19560;SDS011;9927;47.792;10.616;2022-12-29T08:45:57;11.90;;;6.67;;
19560;SDS011;9927;47.792;10.616;2022-12-29T08:48:25;9.70;;;6.13;;
19560;SDS011;9927;47.792;10.616;2022-12-29T08:50:53;9.73;;;5.90;;
19560;SDS011;9927;47.792;10.616;2022-12-29T08:53:20;12.77;;;6.93;;
19560;SDS011;9927;47.792;10.616;2022-12-29T08:55:54;9.67;;;6.63;;
19560;SDS011;9927;47.792;10.616;2022-12-29T08:58:30;8.53;;;5.90;;
19560;SDS011;9927;47.792;10.616;2022-12-29T09:00:58;5.73;;;5.13;;
19560;SDS011;9927;47.792;10.616;2022-12-29T09:03:26;9.60;;;6.57;;
19560;SDS011;9927;47.792;10.616;2022-12-29T09:06:14;5.60;;;4.40;;
19560;SDS011;9927;47.792;10.616;2022-12-29T09:08:42;3.80;;;3.60;;
19560;SDS011;9927;47.792;10.616;2022-12-29T09:11:12;8.07;;;5.30;;
19560;SDS011;9927;47.792;10.616;2022-12-29T09:13:42;6.40;;;4.80;;
19560;SDS011;9927;47.792;10.616;2022-12-29T09:16:09;4.83;;;4.40;;
19560;SDS011;9927;47.792;10.616;2022-12-29T09:18:37;8.60;;;5.43;;
19560;SDS011;9927;47.792;10.616;2022-12-29T09:21:05;10.40;;;5.53;;
19560;SDS011;9927;47.792;10.616;2022-12-29T09:23:34;9.10;;;5.50;;
19560;SDS011;9927;47.792;10.616;2022-12-29T09:26:01;8.05;;;5.63;;
19560;SDS011;9927;47.792;10.616;2022-12-29T09:28:29;7.28;;;5.32;;
19560;SDS011;9927;47.792;10.616;2022-12-29T09:30:57;5.28;;;4.60;;
19560;SDS011;9927;47.792;10.616;2022-12-29T09:33:25;9.10;;;6.03;;
19560;SDS011;9927;47.792;10.616;2022-12-29T09:35:54;8.47;;;5.37;;
19560;SDS011;9927;47.792;10.616;2022-12-29T09:38:24;10.20;;;6.03;;
19560;SDS011;9927;47.792;10.616;2022-12-29T09:40:53;7.00;;;5.28;;
19560;SDS011;9927;47.792;10.616;2022-12-29T09:49:32;8.27;;;5.55;;
19560;SDS011;9927;47.792;10.616;2022-12-29T09:52:14;9.80;;;6.17;;
19560;SDS011;9927;47.792;10.616;2022-12-29T09:54:45;7.20;;;5.17;;
19560;SDS011;9927;47.792;10.616;2022-12-29T10:00:38;11.53;;;6.77;;
19560;SDS011;9927;47.792;10.616;2022-12-29T10:03:21;7.40;;;5.87;;
19560;SDS011;9927;47.792;10.616;2022-12-29T10:06:03;10.73;;;6.38;;
19560;SDS011;9927;47.792;10.616;2022-12-29T10:08:59;8.35;;;5.47;;
19560;SDS011;9927;47.792;10.616;2022-12-29T10:19:45;10.18;;;6.13;;
19560;SDS011;9927;47.792;10.616;2022-12-29T10:23:14;7.68;;;5.18;;
19560;SDS011;9927;47.792;10.616;2022-12-29T10:25:22;11.13;;;5.80;;
19560;SDS011;9927;47.792;10.616;2022-12-29T10:27:57;5.53;;;4.40;;
19560;SDS011;9927;47.792;10.616;2022-12-29T10:30:29;7.70;;;4.72;;
19560;SDS011;9927;47.792;10.616;2022-12-29T10:33:05;4.53;;;4.13;;
19560;SDS011;9927;47.792;10.616;2022-12-29T10:35:36;9.50;;;6.25;;
19560;SDS011;9927;47.792;10.616;2022-12-29T10:43:49;11.57;;;6.35;;
19560;SDS011;9927;47.792;10.616;2022-12-29T10:46:44;9.73;;;5.72;;
19560;SDS011;9927;47.792;10.616;2022-12-29T10:49:21;5.63;;;4.75;;
19560;SDS011;9927;47.792;10.616;2022-12-29T10:51:51;5.28;;;4.43;;
19560;SDS011;9927;47.792;10.616;2022-12-29T10:54:26;5.50;;;4.20;;
19560;SDS011;9927;47.792;10.616;2022-12-29T10:57:08;5.88;;;4.38;;
19560;SDS011;9927;47.792;10.616;2022-12-29T10:59:56;6.28;;;4.05;;
19560;SDS011;9927;47.792;10.616;2022-12-29T11:08:03;6.72;;;5.22;;
19560;SDS011;9927;47.792;10.616;2022-12-29T11:10:37;4.93;;;4.43;;
19560;SDS011;9927;47.792;10.616;2022-12-29T11:13:13;6.47;;;4.90;;
19560;SDS011;9927;47.792;10.616;2022-12-29T11:15:45;4.95;;;4.00;;
19560;SDS011;9927;47.792;10.616;2022-12-29T11:18:30;4.85;;;4.32;;
19560;SDS011;9927;47.792;10.616;2022-12-29T11:21:09;5.30;;;4.40;;
19560;SDS011;9927;47.792;10.616;2022-12-29T11:24:00;5.10;;;4.20;;
19560;SDS011;9927;47.792;10.616;2022-12-29T11:26:30;6.53;;;4.38;;
19560;SDS011;9927;47.792;10.616;2022-12-29T11:31:47;4.80;;;4.28;;
19560;SDS011;9927;47.792;10.616;2022-12-29T11:34:21;8.52;;;5.88;;
19560;SDS011;9927;47.792;10.616;2022-12-29T11:36:51;8.88;;;5.70;;
19560;SDS011;9927;47.792;10.616;2022-12-29T11:39:25;9.20;;;6.05;;
19560;SDS011;9927;47.792;10.616;2022-12-29T11:41:56;7.18;;;4.78;;
19560;SDS011;9927;47.792;10.616;2022-12-29T11:44:24;9.45;;;5.85;;
19560;SDS011;9927;47.792;10.616;2022-12-29T11:46:53;6.13;;;4.95;;
19560;SDS011;9927;47.792;10.616;2022-12-29T11:49:24;9.52;;;5.57;;
19560;SDS011;9927;47.792;10.616;2022-12-29T11:51:53;7.38;;;4.78;;
19560;SDS011;9927;47.792;10.616;2022-12-29T11:54:24;5.82;;;4.00;;
19560;SDS011;9927;47.792;10.616;2022-12-29T11:56:57;5.22;;;3.70;;
19560;SDS011;9927;47.792;10.616;2022-12-29T11:59:40;6.43;;;3.55;;
19560;SDS011;9927;47.792;10.616;2022-12-29T12:04:42;3.58;;;3.03;;
19560;SDS011;9927;47.792;10.616;2022-12-29T12:07:23;8.63;;;3.47;;
19560;SDS011;9927;47.792;10.616;2022-12-29T12:10:15;4.63;;;3.10;;
19560;SDS011;9927;47.792;10.616;2022-12-29T12:15:22;3.28;;;2.97;;
19560;SDS011;9927;47.792;10.616;2022-12-29T12:20:43;5.10;;;3.00;;
19560;SDS011;9927;47.792;10.616;2022-12-29T12:23:17;2.47;;;2.35;;
19560;SDS011;9927;47.792;10.616;2022-12-29T12:29:04;2.90;;;2.67;;
19560;SDS011;9927;47.792;10.616;2022-12-29T12:34:31;3.30;;;2.78;;
19560;SDS011;9927;47.792;10.616;2022-12-29T12:56:54;3.47;;;2.97;;
19560;SDS011;9927;47.792;10.616;2022-12-29T12:59:57;5.50;;;3.63;;
19560;SDS011;9927;47.792;10.616;2022-12-29T13:10:53;9.75;;;3.03;;
19560;SDS011;9927;47.792;10.616;2022-12-29T13:13:37;5.03;;;2.90;;
19560;SDS011;9927;47.792;10.616;2022-12-29T13:30:00;14.00;;;6.80;;
19560;SDS011;9927;47.792;10.616;2022-12-29T13:37:55;5.45;;;3.10;;
19560;SDS011;9927;47.792;10.616;2022-12-29T13:40:28;5.22;;;2.90;;
19560;SDS011;9927;47.792;10.616;2022-12-29T13:43:01;6.18;;;3.33;;
19560;SDS011;9927;47.792;10.616;2022-12-29T13:45:29;8.05;;;4.00;;
19560;SDS011;9927;47.792;10.616;2022-12-29T13:48:19;8.90;;;4.15;;
19560;SDS011;9927;47.792;10.616;2022-12-29T13:50:55;7.45;;;3.72;;
19560;SDS011;9927;47.792;10.616;2022-12-29T13:53:27;7.15;;;3.45;;
19560;SDS011;9927;47.792;10.616;2022-12-29T13:56:26;5.57;;;2.78;;
19560;SDS011;9927;47.792;10.616;2022-12-29T13:59:59;6.70;;;2.92;;
19560;SDS011;9927;47.792;10.616;2022-12-29T14:02:10;7.70;;;3.67;;
19560;SDS011;9927;47.792;10.616;2022-12-29T14:07:58;5.47;;;3.28;;
19560;SDS011;9927;47.792;10.616;2022-12-29T14:10:27;7.32;;;3.85;;
19560;SDS011;9927;47.792;10.616;2022-12-29T14:15:30;2.65;;;2.50;;
19560;SDS011;9927;47.792;10.616;2022-12-29T14:18:05;7.30;;;3.40;;
19560;SDS011;9927;47.792;10.616;2022-12-29T14:20:52;8.85;;;3.85;;
19560;SDS011;9927;47.792;10.616;2022-12-29T14:26:44;9.63;;;4.45;;
19560;SDS011;9927;47.792;10.616;2022-12-29T14:29:41;5.32;;;3.50;;
19560;SDS011;9927;47.792;10.616;2022-12-29T14:35:32;9.38;;;3.50;;
19560;SDS011;9927;47.792;10.616;2022-12-29T14:38:16;11.45;;;4.45;;
19560;SDS011;9927;47.792;10.616;2022-12-29T14:40:46;5.75;;;3.55;;
19560;SDS011;9927;47.792;10.616;2022-12-29T14:43:22;9.18;;;4.32;;
19560;SDS011;9927;47.792;10.616;2022-12-29T14:45:55;5.53;;;3.08;;
19560;SDS011;9927;47.792;10.616;2022-12-29T14:51:24;6.45;;;3.40;;
19560;SDS011;9927;47.792;10.616;2022-12-29T14:53:58;5.50;;;3.22;;
19560;SDS011;9927;47.792;10.616;2022-12-29T14:56:27;5.65;;;3.05;;
19560;SDS011;9927;47.792;10.616;2022-12-29T14:58:59;5.57;;;3.20;;
19560;SDS011;9927;47.792;10.616;2022-12-29T15:04:18;2.60;;;2.40;;
19560;SDS011;9927;47.792;10.616;2022-12-29T15:06:51;3.72;;;2.67;;
19560;SDS011;9927;47.792;10.616;2022-12-29T15:12:23;7.05;;;3.60;;
19560;SDS011;9927;47.792;10.616;2022-12-29T15:15:20;6.97;;;3.60;;
19560;SDS011;9927;47.792;10.616;2022-12-29T15:17:50;6.60;;;3.20;;
19560;SDS011;9927;47.792;10.616;2022-12-29T15:23:11;19.45;;;4.95;;
19560;SDS011;9927;47.792;10.616;2022-12-29T15:25:46;7.60;;;3.50;;
19560;SDS011;9927;47.792;10.616;2022-12-29T15:28:25;6.60;;;3.30;;
19560;SDS011;9927;47.792;10.616;2022-12-29T15:30:54;4.00;;;2.90;;
19560;SDS011;9927;47.792;10.616;2022-12-29T15:33:36;10.82;;;4.03;;
19560;SDS011;9927;47.792;10.616;2022-12-29T15:36:10;6.43;;;3.55;;
19560;SDS011;9927;47.792;10.616;2022-12-29T15:38:39;11.20;;;7.35;;
19560;SDS011;9927;47.792;10.616;2022-12-29T15:41:29;6.35;;;4.40;;
19560;SDS011;9927;47.792;10.616;2022-12-29T15:44:25;8.68;;;4.75;;
19560;SDS011;9927;47.792;10.616;2022-12-29T15:46:56;14.70;;;7.88;;
19560;SDS011;9927;47.792;10.616;2022-12-29T15:49:24;13.25;;;7.25;;
19560;SDS011;9927;47.792;10.616;2022-12-29T15:51:57;10.70;;;5.20;;
19560;SDS011;9927;47.792;10.616;2022-12-29T15:54:26;11.77;;;7.28;;
19560;SDS011;9927;47.792;10.616;2022-12-29T15:56:56;14.52;;;8.85;;
19560;SDS011;9927;47.792;10.616;2022-12-29T15:59:33;15.98;;;7.32;;
19560;SDS011;9927;47.792;10.616;2022-12-29T16:02:01;12.85;;;6.22;;
19560;SDS011;9927;47.792;10.616;2022-12-29T16:04:37;8.23;;;4.15;;
19560;SDS011;9927;47.792;10.616;2022-12-29T16:07:32;8.55;;;4.22;;
19560;SDS011;9927;47.792;10.616;2022-12-29T16:12:50;5.85;;;3.78;;
19560;SDS011;9927;47.792;10.616;2022-12-29T16:15:17;11.32;;;5.47;;
19560;SDS011;9927;47.792;10.616;2022-12-29T16:17:46;8.30;;;5.68;;
19560;SDS011;9927;47.792;10.616;2022-12-29T16:20:19;13.35;;;8.13;;
19560;SDS011;9927;47.792;10.616;2022-12-29T16:22:54;27.40;;;9.90;;
19560;SDS011;9927;47.792;10.616;2022-12-29T16:25:30;15.85;;;8.85;;
19560;SDS011;9927;47.792;10.616;2022-12-29T16:28:01;12.55;;;7.88;;
19560;SDS011;9927;47.792;10.616;2022-12-29T16:30:40;11.05;;;6.22;;
19560;SDS011;9927;47.792;10.616;2022-12-29T16:33:38;8.32;;;5.03;;
19560;SDS011;9927;47.792;10.616;2022-12-29T16:36:20;5.72;;;4.55;;
19560;SDS011;9927;47.792;10.616;2022-12-29T16:39:10;11.95;;;6.13;;
19560;SDS011;9927;47.792;10.616;2022-12-29T16:41:49;7.00;;;4.75;;
19560;SDS011;9927;47.792;10.616;2022-12-29T16:47:04;8.00;;;4.27;;
19560;SDS011;9927;47.792;10.616;2022-12-29T16:49:39;10.05;;;6.88;;
19560;SDS011;9927;47.792;10.616;2022-12-29T16:52:12;20.08;;;8.18;;
19560;SDS011;9927;47.792;10.616;2022-12-29T16:54:48;8.82;;;5.22;;
19560;SDS011;9927;47.792;10.616;2022-12-29T16:57:22;12.23;;;6.88;;
19560;SDS011;9927;47.792;10.616;2022-12-29T16:59:52;18.60;;;8.15;;
19560;SDS011;9927;47.792;10.616;2022-12-29T17:02:23;11.50;;;5.93;;
19560;SDS011;9927;47.792;10.616;2022-12-29T17:04:53;6.20;;;4.53;;
19560;SDS011;9927;47.792;10.616;2022-12-29T17:07:22;9.52;;;5.28;;
19560;SDS011;9927;47.792;10.616;2022-12-29T17:09:51;12.40;;;6.35;;
19560;SDS011;9927;47.792;10.616;2022-12-29T17:12:25;11.18;;;5.18;;
19560;SDS011;9927;47.792;10.616;2022-12-29T17:15:05;7.80;;;4.75;;
19560;SDS011;9927;47.792;10.616;2022-12-29T17:17:36;7.53;;;5.05;;
19560;SDS011;9927;47.792;10.616;2022-12-29T17:20:15;11.55;;;6.50;;
19560;SDS011;9927;47.792;10.616;2022-12-29T17:22:44;23.60;;;7.63;;
19560;SDS011;9927;47.792;10.616;2022-12-29T17:25:12;10.98;;;5.63;;
19560;SDS011;9927;47.792;10.616;2022-12-29T17:32:41;8.97;;;4.67;;
19560;SDS011;9927;47.792;10.616;2022-12-29T17:35:13;7.88;;;4.70;;
19560;SDS011;9927;47.792;10.616;2022-12-29T17:37:44;5.40;;;4.05;;
19560;SDS011;9927;47.792;10.616;2022-12-29T17:40:13;10.18;;;5.13;;
19560;SDS011;9927;47.792;10.616;2022-12-29T17:42:47;8.45;;;4.43;;
19560;SDS011;9927;47.792;10.616;2022-12-29T17:45:16;14.65;;;5.55;;
19560;SDS011;9927;47.792;10.616;2022-12-29T17:47:46;8.63;;;4.47;;
19560;SDS011;9927;47.792;10.616;2022-12-29T17:50:14;18.33;;;5.25;;
19560;SDS011;9927;47.792;10.616;2022-12-29T17:52:45;8.60;;;4.60;;
19560;SDS011;9927;47.792;10.616;2022-12-29T17:55:19;15.55;;;5.68;;
19560;SDS011;9927;47.792;10.616;2022-12-29T17:57:48;8.40;;;4.95;;
19560;SDS011;9927;47.792;10.616;2022-12-29T18:00:17;16.23;;;6.53;;
19560;SDS011;9927;47.792;10.616;2022-12-29T18:02:46;16.58;;;6.45;;
19560;SDS011;9927;47.792;10.616;2022-12-29T18:05:19;17.73;;;7.22;;
19560;SDS011;9927;47.792;10.616;2022-12-29T18:07:57;10.55;;;4.57;;
19560;SDS011;9927;47.792;10.616;2022-12-29T18:10:26;9.40;;;4.72;;
19560;SDS011;9927;47.792;10.616;2022-12-29T18:12:57;6.00;;;3.88;;
19560;SDS011;9927;47.792;10.616;2022-12-29T18:15:27;10.70;;;4.50;;
19560;SDS011;9927;47.792;10.616;2022-12-29T18:17:58;8.23;;;4.20;;
19560;SDS011;9927;47.792;10.616;2022-12-29T18:20:29;8.27;;;3.75;;
19560;SDS011;9927;47.792;10.616;2022-12-29T18:22:56;5.47;;;3.53;;
19560;SDS011;9927;47.792;10.616;2022-12-29T18:25:32;9.70;;;4.00;;
19560;SDS011;9927;47.792;10.616;2022-12-29T18:28:07;7.55;;;3.90;;
19560;SDS011;9927;47.792;10.616;2022-12-29T18:30:35;9.77;;;4.03;;
19560;SDS011;9927;47.792;10.616;2022-12-29T18:33:03;4.43;;;3.33;;
19560;SDS011;9927;47.792;10.616;2022-12-29T18:35:36;8.45;;;4.30;;
19560;SDS011;9927;47.792;10.616;2022-12-29T18:38:06;6.45;;;3.50;;
19560;SDS011;9927;47.792;10.616;2022-12-29T18:40:37;10.48;;;3.75;;
19560;SDS011;9927;47.792;10.616;2022-12-29T18:43:10;7.90;;;3.65;;
19560;SDS011;9927;47.792;10.616;2022-12-29T18:45:39;11.35;;;4.50;;
19560;SDS011;9927;47.792;10.616;2022-12-29T18:48:07;7.88;;;3.78;;
19560;SDS011;9927;47.792;10.616;2022-12-29T18:50:34;12.60;;;5.65;;
19560;SDS011;9927;47.792;10.616;2022-12-29T18:53:01;6.70;;;3.80;;
19560;SDS011;9927;47.792;10.616;2022-12-29T18:55:30;8.95;;;4.05;;
19560;SDS011;9927;47.792;10.616;2022-12-29T18:57:57;4.18;;;3.45;;
19560;SDS011;9927;47.792;10.616;2022-12-29T19:00:24;10.50;;;4.68;;
19560;SDS011;9927;47.792;10.616;2022-12-29T19:02:52;7.93;;;4.18;;
19560;SDS011;9927;47.792;10.616;2022-12-29T19:05:26;5.85;;;3.60;;
19560;SDS011;9927;47.792;10.616;2022-12-29T19:07:55;6.35;;;4.45;;
19560;SDS011;9927;47.792;10.616;2022-12-29T19:10:23;8.93;;;4.38;;
19560;SDS011;9927;47.792;10.616;2022-12-29T19:12:51;8.57;;;3.80;;
19560;SDS011;9927;47.792;10.616;2022-12-29T19:15:26;19.38;;;6.38;;
19560;SDS011;9927;47.792;10.616;2022-12-29T19:18:02;16.70;;;4.57;;
19560;SDS011;9927;47.792;10.616;2022-12-29T19:20:51;9.20;;;4.45;;
19560;SDS011;9927;47.792;10.616;2022-12-29T19:23:21;4.20;;;3.35;;
19560;SDS011;9927;47.792;10.616;2022-12-29T19:25:50;9.38;;;4.05;;
19560;SDS011;9927;47.792;10.616;2022-12-29T19:28:20;8.63;;;4.00;;
19560;SDS011;9927;47.792;10.616;2022-12-29T19:30:52;6.03;;;3.03;;
19560;SDS011;9927;47.792;10.616;2022-12-29T19:33:23;6.88;;;3.28;;
19560;SDS011;9927;47.792;10.616;2022-12-29T19:35:51;5.83;;;3.20;;
19560;SDS011;9927;47.792;10.616;2022-12-29T19:38:18;12.60;;;4.75;;
19560;SDS011;9927;47.792;10.616;2022-12-29T19:40:47;8.80;;;3.17;;
19560;SDS011;9927;47.792;10.616;2022-12-29T19:43:16;8.10;;;3.45;;
19560;SDS011;9927;47.792;10.616;2022-12-29T19:45:44;6.93;;;3.80;;
19560;SDS011;9927;47.792;10.616;2022-12-29T19:48:13;7.88;;;3.85;;
19560;SDS011;9927;47.792;10.616;2022-12-29T19:50:42;13.73;;;4.70;;
19560;SDS011;9927;47.792;10.616;2022-12-29T19:53:12;7.75;;;3.70;;
19560;SDS011;9927;47.792;10.616;2022-12-29T19:55:41;8.90;;;4.78;;
19560;SDS011;9927;47.792;10.616;2022-12-29T19:58:09;9.32;;;5.10;;
19560;SDS011;9927;47.792;10.616;2022-12-29T20:00:37;12.57;;;4.53;;
19560;SDS011;9927;47.792;10.616;2022-12-29T20:03:05;8.13;;;4.18;;
19560;SDS011;9927;47.792;10.616;2022-12-29T20:05:33;7.15;;;3.90;;
19560;SDS011;9927;47.792;10.616;2022-12-29T20:08:00;6.47;;;3.75;;
19560;SDS011;9927;47.792;10.616;2022-12-29T20:10:27;10.15;;;4.32;;
19560;SDS011;9927;47.792;10.616;2022-12-29T20:12:55;6.20;;;3.38;;
19560;SDS011;9927;47.792;10.616;2022-12-29T20:15:22;7.30;;;3.38;;
19560;SDS011;9927;47.792;10.616;2022-12-29T20:17:49;6.80;;;3.40;;
19560;SDS011;9927;47.792;10.616;2022-12-29T20:20:36;11.30;;;4.13;;
19560;SDS011;9927;47.792;10.616;2022-12-29T20:23:04;3.53;;;3.20;;
19560;SDS011;9927;47.792;10.616;2022-12-29T20:25:32;7.45;;;3.90;;
19560;SDS011;9927;47.792;10.616;2022-12-29T20:28:11;7.55;;;3.75;;
19560;SDS011;9927;47.792;10.616;2022-12-29T20:30:40;9.93;;;3.85;;
19560;SDS011;9927;47.792;10.616;2022-12-29T20:33:07;3.30;;;3.10;;
19560;SDS011;9927;47.792;10.616;2022-12-29T20:35:35;8.57;;;3.70;;
19560;SDS011;9927;47.792;10.616;2022-12-29T20:38:03;7.20;;;3.58;;
19560;SDS011;9927;47.792;10.616;2022-12-29T20:40:31;11.38;;;4.07;;
19560;SDS011;9927;47.792;10.616;2022-12-29T20:42:58;8.32;;;3.80;;
19560;SDS011;9927;47.792;10.616;2022-12-29T20:45:25;12.68;;;4.85;;
19560;SDS011;9927;47.792;10.616;2022-12-29T20:47:53;8.43;;;3.90;;
19560;SDS011;9927;47.792;10.616;2022-12-29T20:50:20;9.05;;;4.03;;
19560;SDS011;9927;47.792;10.616;2022-12-29T20:52:47;8.52;;;3.97;;
19560;SDS011;9927;47.792;10.616;2022-12-29T20:55:15;10.57;;;4.25;;
19560;SDS011;9927;47.792;10.616;2022-12-29T20:57:42;5.70;;;3.38;;
19560;SDS011;9927;47.792;10.616;2022-12-29T21:00:30;7.28;;;3.65;;
19560;SDS011;9927;47.792;10.616;2022-12-29T21:02:58;6.47;;;3.75;;
19560;SDS011;9927;47.792;10.616;2022-12-29T21:05:27;10.77;;;4.38;;
19560;SDS011;9927;47.792;10.616;2022-12-29T21:07:55;12.15;;;4.57;;
19560;SDS011;9927;47.792;10.616;2022-12-29T21:10:25;7.80;;;4.00;;
19560;SDS011;9927;47.792;10.616;2022-12-29T21:12:52;5.63;;;3.60;;
19560;SDS011;9927;47.792;10.616;2022-12-29T21:15:20;8.93;;;4.17;;
19560;SDS011;9927;47.792;10.616;2022-12-29T21:17:47;8.52;;;4.05;;
19560;SDS011;9927;47.792;10.616;2022-12-29T21:20:14;7.20;;;4.18;;